Cumberland, Maryland
Current Conditions -  °F | °C
As of 4:58 AM on Sunday 21 Dec 2014 (Local Time) from KCBE Reporting Station
Overcast Overcast  
Wind Chill: 32°   Ceiling: 3100
Heat Index: 32°   Visibility: 10mi
Dew Point: 28°   Wind: 0mph
Humidity: 87%   Direction: NA
Pressure: 30.31"   Gusts: NA
Location:  39.65°N, 78.76°W
Report Text: KCBE 210958Z AUTO 00000KT 10SM BKN031 BKN048 OVC060 00/M02 A3031 RMK AO1
Loading
Personal Weather Stations






























Interactive Weather Map New forecast layout! Learn more

10-Day Weather Forecast

Advertisements
Track Severe Weather on mobile